Time;durP1;ratioP1;P1;durP2;ratioP2;P2;SDS_P1;SDS_P2;PMS_P1;PMS_P2;Temp;Humidity;BMP_temperature;BMP_pressure;BME280_temperature;BME280_humidity;BME280_pressure;Samples;Min_cycle;Max_cycle;Signal;HPM_P1;HPM_P2
2023/07/01 00:00:08;;;;;;;11.63;8.55;;;;;;;18.80;77.53;98936.13;5034273;28;20052;-76
2023/07/01 00:02:36;;;;;;;9.63;8.65;;;;;;;18.81;77.31;98937.75;5016760;28;20025;-77
2023/07/01 00:05:04;;;;;;;9.77;8.80;;;;;;;18.71;78.08;98935.75;5034533;28;20029;-76
2023/07/01 00:07:29;;;;;;;14.38;9.15;;;;;;;18.62;78.58;98939.78;5033242;28;20025;-76
2023/07/01 00:09:54;;;;;;;11.52;9.43;;;;;;;18.72;78.29;98934.53;5033096;28;20029;-77
2023/07/01 00:12:20;;;;;;;12.45;9.07;;;;;;;18.74;77.99;98932.09;5016590;28;20032;-76
2023/07/01 00:14:45;;;;;;;12.05;8.90;;;;;;;18.93;77.55;98928.06;5034268;28;20029;-77
2023/07/01 00:17:12;;;;;;;9.75;8.20;;;;;;;18.85;77.64;98932.09;5032470;28;20033;-77
2023/07/01 00:19:38;;;;;;;14.15;10.48;;;;;;;18.89;77.24;98930.88;5032416;28;20030;-77
2023/07/01 00:22:04;;;;;;;10.75;9.00;;;;;;;18.81;77.60;98929.25;5034150;28;20036;-77
2023/07/01 00:24:29;;;;;;;9.80;8.80;;;;;;;18.52;78.80;98935.72;5032709;28;20029;-76
2023/07/01 00:26:55;;;;;;;12.77;9.02;;;;;;;18.54;78.71;98929.66;5032015;28;20025;-77
2023/07/01 00:29:20;;;;;;;10.80;8.85;;;;;;;18.20;80.28;98933.63;5034247;28;20079;-77
2023/07/01 00:31:47;;;;;;;12.73;9.30;;;;;;;17.99;81.67;98931.53;5034018;28;20036;-76
2023/07/01 00:34:12;;;;;;;13.05;8.45;;;;;;;17.95;81.96;98937.16;5033859;28;20034;-76
2023/07/01 00:36:38;;;;;;;11.82;9.30;;;;;;;17.91;82.38;98938.34;5032691;28;20461;-76
2023/07/01 00:39:03;;;;;;;12.30;9.70;;;;;;;17.78;82.52;98935.88;5033756;28;20044;-76
2023/07/01 00:41:29;;;;;;;10.35;9.25;;;;;;;17.56;83.21;98922.84;5032478;28;20405;-77
2023/07/01 00:43:55;;;;;;;15.05;10.05;;;;;;;17.60;83.17;98932.97;5016959;28;20079;-76
2023/07/01 00:46:21;;;;;;;13.27;10.23;;;;;;;17.55;83.95;98930.50;5032427;28;20023;-77
2023/07/01 00:48:47;;;;;;;10.98;9.88;;;;;;;17.54;83.80;98932.53;5033581;28;20503;-77
2023/07/01 00:51:13;;;;;;;11.88;9.27;;;;;;;17.82;82.26;98930.25;5033584;28;20029;-76
2023/07/01 00:53:40;;;;;;;12.48;9.85;;;;;;;17.81;82.12;98934.28;5015176;28;20099;-76
2023/07/01 00:56:08;;;;;;;10.77;9.68;;;;;;;17.99;81.23;98933.53;5033437;28;20090;-76
2023/07/01 00:58:34;;;;;;;10.48;9.38;;;;;;;17.77;82.14;98934.25;5033446;28;20021;-77
2023/07/01 01:01:09;;;;;;;10.80;9.48;;;;;;;17.74;81.81;98923.75;5033253;28;20056;-76
2023/07/01 01:03:45;;;;;;;11.30;9.70;;;;;;;17.83;81.45;98924.16;5016758;28;20029;-76
2023/07/01 01:06:19;;;;;;;10.65;9.13;;;;;;;17.76;81.51;98929.81;5032002;28;20408;-76
2023/07/01 01:08:47;;;;;;;10.88;9.43;;;;;;;17.77;81.66;98924.94;5032712;28;20503;-76
2023/07/01 01:11:14;;;;;;;11.63;9.50;;;;;;;17.62;81.75;98924.09;5033213;28;20071;-76
2023/07/01 01:13:42;;;;;;;14.77;10.00;;;;;;;17.59;82.08;98922.03;5014861;28;20029;-76
2023/07/01 01:16:08;;;;;;;10.23;9.23;;;;;;;17.59;82.22;98924.88;5033051;28;20022;-76
2023/07/01 01:18:35;;;;;;;11.65;10.55;;;;;;;17.58;82.23;98924.06;5033354;28;20021;-76
2023/07/01 01:21:02;;;;;;;14.23;10.07;;;;;;;17.48;82.80;98925.63;5031855;28;20032;-76
2023/07/01 01:23:34;;;;;;;12.38;10.40;;;;;;;17.30;83.49;98921.91;5031692;28;20082;-76
2023/07/01 01:26:28;;;;;;;12.35;11.07;;;;;;;17.06;85.04;98916.47;5032983;28;20020;-76
2023/07/01 01:28:54;;;;;;;12.43;9.52;;;;;;;17.01;85.65;98924.50;5025532;28;20413;-76
2023/07/01 01:31:20;;;;;;;10.85;9.77;;;;;;;17.03;85.24;98924.94;5015046;28;20396;-76
2023/07/01 01:33:46;;;;;;;11.32;9.68;;;;;;;17.10;85.06;98916.50;5032570;28;20032;-76
2023/07/01 01:36:18;;;;;;;11.38;9.98;;;;;;;17.03;84.78;98916.47;5032637;28;20037;-76
2023/07/01 01:38:43;;;;;;;11.57;10.45;;;;;;;16.94;85.03;98917.59;5014907;28;20025;-77
2023/07/01 01:41:39;;;;;;;15.13;9.82;;;;;;;17.04;84.36;98909.63;5032756;28;20029;-76
2023/07/01 01:44:11;;;;;;;13.93;10.05;;;;;;;16.97;84.28;98905.50;5032295;28;20488;-76
2023/07/01 01:46:38;;;;;;;11.05;9.90;;;;;;;16.93;84.62;98910.31;5031201;28;20032;-76
2023/07/01 01:49:06;;;;;;;11.85;9.52;;;;;;;17.09;84.05;98929.84;5032377;28;20424;-76
2023/07/01 01:51:34;;;;;;;10.93;9.90;;;;;;;17.21;83.63;98931.53;5014655;28;20017;-76
2023/07/01 01:54:03;;;;;;;11.25;9.50;;;;;;;17.18;83.71;98946.44;5032359;28;20026;-77
2023/07/01 01:56:31;;;;;;;13.50;10.32;;;;;;;16.93;84.85;98943.38;5031059;28;20459;-76
2023/07/01 01:58:56;;;;;;;15.23;10.85;;;;;;;16.69;85.60;98940.78;5031800;28;20030;-76
2023/07/01 02:01:22;;;;;;;13.80;10.45;;;;;;;16.39;87.30;98938.88;5029875;28;20077;-76
2023/07/01 02:03:47;;;;;;;13.30;10.80;;;;;;;16.40;87.75;98934.84;5028819;28;20447;-76
2023/07/01 02:06:13;;;;;;;10.35;9.00;;;;;;;16.62;86.93;98943.53;5014695;28;20374;-76
2023/07/01 02:08:39;;;;;;;10.38;9.30;;;;;;;16.81;85.43;98936.03;5032203;28;20029;-76
2023/07/01 02:11:04;;;;;;;13.32;10.18;;;;;;;16.98;84.22;98934.56;5032053;28;20415;-76
2023/07/01 02:13:30;;;;;;;10.73;9.07;;;;;;;16.89;84.15;98931.25;5030574;28;20021;-76
2023/07/01 02:15:55;;;;;;;22.60;10.30;;;;;;;16.98;83.36;98931.75;5031901;28;20037;-77
2023/07/01 02:18:21;;;;;;;14.95;9.52;;;;;;;16.75;84.03;98934.75;5030490;28;20484;-76
2023/07/01 02:20:46;;;;;;;10.60;9.38;;;;;;;16.70;84.97;98938.75;5031331;28;20025;-76
2023/07/01 02:23:11;;;;;;;17.70;10.13;;;;;;;16.51;85.81;98934.97;5031644;28;20032;-76
2023/07/01 02:25:37;;;;;;;10.80;9.70;;;;;;;16.67;85.37;98937.53;5031761;28;20021;-76
2023/07/01 02:28:03;;;;;;;10.90;9.80;;;;;;;16.67;85.02;98931.06;5009952;28;20408;-76
2023/07/01 02:30:28;;;;;;;10.75;9.13;;;;;;;16.53;85.61;98924.09;5012020;28;20455;-76
2023/07/01 02:32:53;;;;;;;10.80;9.63;;;;;;;16.47;86.05;98934.13;5012055;28;20493;-76
2023/07/01 02:35:19;;;;;;;13.68;8.77;;;;;;;16.68;84.88;98932.69;5030392;28;20484;-76
2023/07/01 02:37:45;;;;;;;10.50;9.27;;;;;;;16.48;85.49;98932.09;5031633;28;20104;-76
2023/07/01 02:40:10;;;;;;;10.77;8.88;;;;;;;16.59;85.23;98938.66;5011175;28;20029;-77
2023/07/01 02:42:36;;;;;;;10.65;9.27;;;;;;;16.39;86.30;98935.25;5013681;28;20029;-76
2023/07/01 02:45:04;;;;;;;13.07;9.60;;;;;;;16.45;86.11;98935.72;5026990;28;20018;-76
2023/07/01 02:47:30;;;;;;;13.95;9.68;;;;;;;16.30;87.45;98937.56;5011826;28;20088;-77
2023/07/01 02:49:55;;;;;;;29.20;9.77;;;;;;;16.35;87.24;98935.22;5011580;28;20022;-77
2023/07/01 02:52:21;;;;;;;13.68;9.18;;;;;;;16.47;86.42;98945.44;5010858;28;20022;-80
2023/07/01 02:54:47;;;;;;;14.35;9.02;;;;;;;16.67;85.58;98948.00;5025813;28;20522;-78
2023/07/01 02:57:12;;;;;;;22.75;9.98;;;;;;;16.60;85.33;98943.13;5031305;28;20066;-79
2023/07/01 02:59:37;;;;;;;14.18;9.23;;;;;;;16.61;85.18;98935.47;5030707;28;20026;-77
2023/07/01 03:02:04;;;;;;;10.35;9.30;;;;;;;16.66;85.15;98935.09;5031336;28;20030;-78
2023/07/01 03:04:30;;;;;;;10.98;9.68;;;;;;;16.44;86.69;98934.09;5030161;28;20511;-77
2023/07/01 03:06:56;;;;;;;15.88;9.90;;;;;;;16.48;86.48;98930.13;5013447;28;20014;-79
2023/07/01 03:09:22;;;;;;;19.60;10.15;;;;;;;16.44;86.18;98928.44;5011453;28;20033;-76
2023/07/01 03:11:48;;;;;;;16.55;9.32;;;;;;;16.66;85.33;98926.63;5030553;28;20027;-74
2023/07/01 03:14:14;;;;;;;13.35;8.77;;;;;;;16.69;84.75;98923.84;5031272;28;20093;-74
2023/07/01 03:16:42;;;;;;;13.15;10.02;;;;;;;16.97;83.57;98930.13;5031202;28;20512;-74
2023/07/01 03:19:08;;;;;;;14.63;10.50;;;;;;;16.90;83.56;98927.22;5031125;28;20484;-74
2023/07/01 03:21:34;;;;;;;11.63;9.70;;;;;;;16.67;84.78;98916.94;5031048;28;20105;-74
2023/07/01 03:24:00;;;;;;;12.07;8.88;;;;;;;16.74;84.85;98919.84;5013227;28;20025;-74
2023/07/01 03:26:26;;;;;;;12.95;9.60;;;;;;;16.67;85.59;98929.06;5031086;28;20021;-74
2023/07/01 03:28:53;;;;;;;9.70;8.75;;;;;;;16.54;86.15;98924.94;5030181;28;20388;-74
2023/07/01 03:31:22;;;;;;;21.75;10.15;;;;;;;16.27;88.02;98925.03;5030909;28;20036;-74
2023/07/01 03:33:48;;;;;;;13.32;10.05;;;;;;;16.18;89.29;98927.38;5034423;28;20100;-74
2023/07/01 03:36:14;;;;;;;15.70;10.57;;;;;;;16.00;90.85;98936.44;5033021;28;20055;-74
2023/07/01 03:38:39;;;;;;;10.80;9.75;;;;;;;16.15;90.61;98928.97;5033125;28;20026;-74
2023/07/01 03:41:08;;;;;;;13.52;10.10;;;;;;;16.18;90.55;98933.03;5034299;28;20021;-74
2023/07/01 03:43:34;;;;;;;14.52;10.77;;;;;;;16.22;90.33;98939.50;5034330;28;20072;-74
2023/07/01 03:46:00;;;;;;;10.57;9.27;;;;;;;16.29;89.75;98925.50;5034306;28;20040;-74
2023/07/01 03:48:25;;;;;;;12.80;10.23;;;;;;;16.27;89.93;98927.88;5017039;28;20026;-74
2023/07/01 03:50:51;;;;;;;15.57;9.50;;;;;;;16.24;89.35;98935.13;5034669;28;20025;-74
2023/07/01 03:53:17;;;;;;;16.65;9.75;;;;;;;16.31;88.83;98942.00;5017003;28;20029;-74
2023/07/01 03:55:42;;;;;;;17.52;9.50;;;;;;;16.41;88.30;98944.13;5034424;28;20017;-74
2023/07/01 03:58:08;;;;;;;14.05;9.32;;;;;;;16.41;88.80;98947.78;5033446;28;20103;-74
2023/07/01 04:00:33;;;;;;;15.00;9.55;;;;;;;16.63;88.51;98936.69;5031459;28;20057;-74
2023/07/01 04:03:05;;;;;;;15.27;10.77;;;;;;;16.67;87.05;98943.19;5034515;28;20028;-74
2023/07/01 04:05:34;;;;;;;16.02;8.68;;;;;;;16.72;85.79;98932.72;5034381;28;20075;-74
2023/07/01 04:08:00;;;;;;;9.48;8.27;;;;;;;16.80;85.40;98940.06;5034331;28;20021;-74
2023/07/01 04:10:26;;;;;;;9.27;8.38;;;;;;;16.80;85.81;98946.50;5034324;28;20025;-74
2023/07/01 04:12:51;;;;;;;21.42;10.13;;;;;;;16.94;85.85;98947.84;5034254;28;20022;-74
2023/07/01 04:15:17;;;;;;;14.52;9.25;;;;;;;16.90;85.49;98939.34;5031860;28;20033;-74
2023/07/01 04:17:50;;;;;;;9.38;8.38;;;;;;;16.92;85.28;98939.78;5033800;28;20032;-74
2023/07/01 04:20:17;;;;;;;10.95;8.60;;;;;;;16.93;86.03;98946.22;5034105;28;20439;-74
2023/07/01 04:22:42;;;;;;;12.48;9.45;;;;;;;16.95;85.50;98950.28;5016286;28;20053;-74
2023/07/01 04:25:08;;;;;;;7.65;6.95;;;;;;;17.13;84.90;98952.44;5032790;28;20053;-74
2023/07/01 04:27:35;;;;;;;8.77;7.88;;;;;;;17.14;84.70;98956.91;5016190;28;20067;-74
2023/07/01 04:30:01;;;;;;;8.70;7.88;;;;;;;17.30;83.46;98952.97;5016095;28;20116;-74
2023/07/01 04:32:28;;;;;;;9.88;8.88;;;;;;;17.49;83.73;98960.38;5015716;28;20040;-73
2023/07/01 04:34:54;;;;;;;12.80;7.30;;;;;;;17.66;82.00;98956.03;5033978;28;20053;-73
2023/07/01 04:37:20;;;;;;;10.40;6.88;;;;;;;17.88;79.37;98956.91;5033455;28;20037;-73
2023/07/01 04:39:46;;;;;;;7.43;6.72;;;;;;;18.07;79.03;98957.84;5015939;28;20474;-74
2023/07/01 04:42:11;;;;;;;9.63;6.10;;;;;;;18.29;77.01;98950.22;5030392;28;20038;-73
2023/07/01 04:44:37;;;;;;;9.25;6.10;;;;;;;18.43;75.62;98962.78;5033618;28;20021;-73
2023/07/01 04:47:03;;;;;;;12.85;6.55;;;;;;;18.50;75.08;98960.78;5032220;28;20028;-73
2023/07/01 04:49:28;;;;;;;10.38;6.63;;;;;;;18.60;74.12;98964.03;5033614;28;20280;-74
2023/07/01 04:51:53;;;;;;;6.75;6.05;;;;;;;18.61;72.88;98957.16;5033478;28;20091;-73
2023/07/01 04:54:19;;;;;;;8.65;6.45;;;;;;;18.68;72.86;98951.50;5033539;28;20072;-73
2023/07/01 04:56:44;;;;;;;12.23;6.68;;;;;;;18.81;72.80;98949.09;5031899;28;20025;-74
2023/07/01 04:59:10;;;;;;;15.20;6.25;;;;;;;18.91;71.55;98953.16;5015554;28;20022;-74
2023/07/01 05:01:35;;;;;;;9.52;6.43;;;;;;;19.12;71.27;98951.53;5033233;28;20057;-74
2023/07/01 05:04:01;;;;;;;8.90;6.75;;;;;;;19.21;71.40;98946.28;5015558;28;20092;-73
2023/07/01 05:06:26;;;;;;;8.73;6.25;;;;;;;19.16;70.73;98944.66;5031883;28;20032;-74
2023/07/01 05:08:53;;;;;;;8.38;6.82;;;;;;;19.42;70.71;98942.56;5032423;28;20168;-76
2023/07/01 05:11:19;;;;;;;11.20;7.32;;;;;;;19.56;69.41;98946.63;5032032;28;20030;-77
2023/07/01 05:13:45;;;;;;;11.82;6.25;;;;;;;19.61;68.97;98947.00;5033310;28;20022;-77
2023/07/01 05:16:11;;;;;;;6.72;6.13;;;;;;;19.69;69.19;98946.97;5033259;28;20032;-78
2023/07/01 05:18:36;;;;;;;9.40;6.78;;;;;;;20.09;67.98;98949.69;5033762;28;20025;-80
2023/07/01 05:21:02;;;;;;;7.22;6.53;;;;;;;20.08;67.23;98948.88;5033435;28;20025;-79
2023/07/01 05:23:27;;;;;;;12.43;6.30;;;;;;;20.09;67.78;98946.84;5015626;28;20422;-81
2023/07/01 05:25:53;;;;;;;18.65;7.10;;;;;;;20.46;66.59;98951.09;5015429;28;20033;-81
2023/07/01 05:28:18;;;;;;;7.80;6.05;;;;;;;20.45;65.62;98943.81;5031803;28;20025;-82
2023/07/01 05:30:45;;;;;;;9.05;5.85;;;;;;;20.68;64.83;98942.44;5031789;28;20021;-78
2023/07/01 05:33:11;;;;;;;8.40;5.40;;;;;;;20.61;64.09;98946.94;5015047;28;20037;-81
2023/07/01 05:35:37;;;;;;;7.82;5.80;;;;;;;20.92;62.92;98934.97;5032719;28;20251;-81
2023/07/01 05:38:09;;;;;;;6.40;5.80;;;;;;;21.02;62.20;98936.13;5015160;28;20424;-81
2023/07/01 05:40:35;;;;;;;13.48;6.10;;;;;;;21.24;62.00;98938.78;5032922;28;20496;-81
2023/07/01 05:43:00;;;;;;;6.57;5.60;;;;;;;21.37;60.36;98945.53;5014877;28;20033;-80
2023/07/01 05:45:26;;;;;;;20.02;5.75;;;;;;;21.62;59.03;98944.47;5032770;28;20048;-82
2023/07/01 05:47:51;;;;;;;6.05;5.38;;;;;;;21.74;57.35;98945.97;5014947;28;20025;-80
2023/07/01 05:50:17;;;;;;;7.10;4.75;;;;;;;21.88;57.42;98933.63;5030705;28;20389;-81
2023/07/01 05:52:42;;;;;;;7.13;6.00;;;;;;;21.93;57.04;98935.19;5032820;28;20028;-82
2023/07/01 05:55:08;;;;;;;12.35;5.82;;;;;;;22.10;56.92;98933.34;5026970;28;20026;-84
2023/07/01 05:57:34;;;;;;;6.53;5.85;;;;;;;22.01;56.94;98934.66;5017104;28;20103;-81
2023/07/01 05:59:59;;;;;;;9.57;5.25;;;;;;;21.95;56.48;98929.88;5014477;28;20041;-81
2023/07/01 06:02:25;;;;;;;5.78;5.28;;;;;;;22.13;56.22;98938.97;5013103;28;20025;-78
2023/07/01 06:04:50;;;;;;;6.00;5.40;;;;;;;22.14;56.59;98952.00;5031340;28;20021;-82
2023/07/01 06:07:16;;;;;;;6.68;6.00;;;;;;;22.08;56.33;98956.53;5031719;28;20079;-81
2023/07/01 06:09:48;;;;;;;6.63;5.85;;;;;;;22.09;57.19;98954.50;5012338;28;20033;-82
2023/07/01 06:12:13;;;;;;;11.20;6.40;;;;;;;22.26;56.40;98944.91;5030026;28;20047;-79
2023/07/01 06:14:39;;;;;;;7.75;5.40;;;;;;;22.45;55.05;98948.31;5021021;28;20080;-79
2023/07/01 06:17:05;;;;;;;8.52;4.68;;;;;;;22.80;54.78;98948.22;5013204;28;20040;-77
2023/07/01 06:19:31;;;;;;;6.28;5.68;;;;;;;23.11;55.08;98954.63;5028053;28;20056;-80
2023/07/01 06:21:56;;;;;;;6.78;5.60;;;;;;;23.22;53.88;98950.78;5029407;28;20029;-79
2023/07/01 06:24:22;;;;;;;10.07;5.97;;;;;;;23.37;52.88;98959.94;5029186;28;20036;-78
2023/07/01 06:26:47;;;;;;;9.02;5.07;;;;;;;23.04;52.79;98956.81;5027686;28;20022;-78
2023/07/01 06:29:13;;;;;;;6.07;5.47;;;;;;;23.34;52.19;98950.19;5027325;28;20021;-79
2023/07/01 06:31:38;;;;;;;6.95;5.38;;;;;;;23.70;52.27;98951.56;5027184;28;20029;-79
2023/07/01 06:34:11;;;;;;;11.98;5.57;;;;;;;23.64;52.10;98953.31;5029178;28;20028;-78
2023/07/01 06:36:37;;;;;;;6.30;4.63;;;;;;;23.76;51.74;98954.69;5029013;28;20076;-78
2023/07/01 06:39:02;;;;;;;6.00;4.72;;;;;;;23.51;52.34;98958.84;5028292;28;20531;-77
2023/07/01 06:41:28;;;;;;;8.70;5.18;;;;;;;23.60;52.04;98956.22;5025173;28;20029;-75
2023/07/01 06:43:53;;;;;;;5.57;5.05;;;;;;;24.29;50.09;98954.06;5011230;28;20025;-73
2023/07/01 06:46:22;;;;;;;6.10;5.60;;;;;;;24.78;49.17;98948.47;5028947;28;20076;-76
2023/07/01 06:48:47;;;;;;;5.57;5.05;;;;;;;25.02;47.92;98947.47;5028875;28;20515;-78
2023/07/01 06:51:13;;;;;;;5.55;4.63;;;;;;;25.12;47.65;98943.53;5010993;28;20029;-79
2023/07/01 06:53:39;;;;;;;12.40;5.65;;;;;;;25.31;47.31;98949.59;5028860;28;20022;-78
2023/07/01 06:56:06;;;;;;;5.72;5.10;;;;;;;24.74;48.84;98944.88;5027542;28;20025;-78
2023/07/01 06:58:31;;;;;;;8.20;4.57;;;;;;;25.06;48.85;98946.13;5027091;28;20041;-78
2023/07/01 07:00:57;;;;;;;9.48;5.78;;;;;;;25.08;48.66;98943.63;5025225;28;20566;-76
2023/07/01 07:03:22;;;;;;;10.25;4.70;;;;;;;25.60;48.70;98946.00;5028498;28;20392;-78
2023/07/01 07:05:48;;;;;;;5.22;4.70;;;;;;;25.88;48.18;98947.25;5028493;28;20108;-80
2023/07/01 07:08:13;;;;;;;14.07;5.15;;;;;;;25.65;45.95;98943.38;5011430;28;20029;-80
2023/07/01 07:10:38;;;;;;;6.00;5.38;;;;;;;26.05;47.79;98933.66;5025870;28;20448;-79
2023/07/01 07:13:04;;;;;;;9.63;5.25;;;;;;;26.35;46.22;98936.50;5024348;28;20036;-80
2023/07/01 07:15:30;;;;;;;7.90;4.43;;;;;;;26.31;44.82;98945.19;5024413;28;20036;-79
2023/07/01 07:17:55;;;;;;;10.80;6.32;;;;;;;26.57;45.83;98938.69;5031097;28;20175;-78
2023/07/01 07:20:21;;;;;;;26.75;6.00;;;;;;;26.71;44.16;98929.63;5030333;28;20138;-78
2023/07/01 07:22:47;;;;;;;7.60;4.30;;;;;;;26.85;42.79;98924.66;5013523;28;20036;-78
2023/07/01 07:25:16;;;;;;;4.20;3.67;;;;;;;26.10;43.80;98920.84;5029677;28;20523;-79
2023/07/01 07:27:45;;;;;;;60.63;13.75;;;;;;;26.35;43.43;98927.88;5001104;28;20392;-78
2023/07/01 07:30:13;;;;;;;5.63;4.60;;;;;;;26.69;43.74;98920.69;5021771;28;20032;-78
2023/07/01 07:32:38;;;;;;;4.35;3.95;;;;;;;27.08;41.88;98911.25;5028958;28;20534;-79
2023/07/01 07:35:04;;;;;;;37.85;6.32;;;;;;;26.74;42.74;98925.03;5023222;28;20053;-79
2023/07/01 07:37:30;;;;;;;6.93;4.47;;;;;;;27.09;42.29;98922.25;5013004;28;20108;-80
2023/07/01 07:39:56;;;;;;;18.42;4.97;;;;;;;27.36;43.60;98914.38;5013167;28;20103;-78
2023/07/01 07:42:21;;;;;;;7.85;5.28;;;;;;;27.16;41.36;98915.47;5031029;28;20025;-76
2023/07/01 07:44:47;;;;;;;7.60;4.90;;;;;;;26.77;42.49;98919.16;5030941;28;20407;-78
2023/07/01 07:47:13;;;;;;;8.70;4.85;;;;;;;27.21;41.97;98922.66;5013158;28;20467;-78
2023/07/01 07:49:39;;;;;;;7.55;4.65;;;;;;;27.66;41.27;98914.97;5013200;28;20030;-78
2023/07/01 07:52:04;;;;;;;4.53;4.13;;;;;;;27.95;40.67;98911.03;5031006;28;20022;-78
2023/07/01 07:54:30;;;;;;;5.00;4.47;;;;;;;27.95;41.77;98908.97;5030877;28;20032;-78
2023/07/01 07:56:58;;;;;;;5.88;4.38;;;;;;;28.16;40.79;98910.19;5012563;28;20029;-78
2023/07/01 07:59:28;;;;;;;5.47;4.20;;;;;;;28.14;39.06;98904.13;5012970;28;20026;-78
2023/07/01 08:01:56;;;;;;;5.82;4.32;;;;;;;28.39;39.36;98910.97;4991603;28;20074;-76
2023/07/01 08:04:22;;;;;;;5.82;4.53;;;;;;;28.38;38.71;98900.75;4991393;28;20041;-76
2023/07/01 08:06:48;;;;;;;4.80;4.30;;;;;;;28.52;39.36;98904.31;4990264;28;20452;-76
2023/07/01 08:09:14;;;;;;;6.38;4.25;;;;;;;28.23;40.02;98896.81;4989546;28;20080;-76
